Time;durP1;ratioP1;P1;durP2;ratioP2;P2;SDS_P1;SDS_P2;PMS_P1;PMS_P2;Temp;Humidity;BMP_temperature;BMP_pressure;BME280_temperature;BME280_humidity;BME280_pressure;Samples;Min_cycle;Max_cycle;Signal;HPM_P1;HPM_P2
2023/10/25 00:02:13;;;;;;;4.07;3.87;;;12.80;65.20;;;;;;20403;6852;338211;-73
2023/10/25 00:04:39;;;;;;;4.13;3.93;;;13.10;64.20;;;;;;20411;6852;317400;-72
2023/10/25 00:07:04;;;;;;;4.10;3.70;;;13.40;63.20;;;;;;20624;6852;117650;-72
2023/10/25 00:09:30;;;;;;;4.43;4.23;;;13.30;63.40;;;;;;20409;6852;308643;-73
2023/10/25 00:11:55;;;;;;;4.67;4.43;;;13.30;63.10;;;;;;20389;6852;309130;-73
2023/10/25 00:14:21;;;;;;;3.93;3.73;;;13.60;62.70;;;;;;20620;6850;117650;-73
2023/10/25 00:16:47;;;;;;;4.40;4.20;;;13.40;63.00;;;;;;20405;6851;280906;-73
2023/10/25 00:19:12;;;;;;;4.60;4.30;;;13.50;63.20;;;;;;20414;6852;286111;-73
2023/10/25 00:21:38;;;;;;;3.97;3.77;;;13.70;62.90;;;;;;20595;6852;117814;-73
2023/10/25 00:24:03;;;;;;;3.50;3.30;;;13.50;63.00;;;;;;20620;6852;118381;-73
2023/10/25 00:26:29;;;;;;;4.13;3.73;;;13.30;63.90;;;;;;20614;6852;117517;-73
2023/10/25 00:28:55;;;;;;;3.77;3.50;;;13.00;64.70;;;;;;20619;6852;118058;-73
2023/10/25 00:31:21;;;;;;;5.40;5.00;;;12.90;65.90;;;;;;20405;6852;308196;-73
2023/10/25 00:33:47;;;;;;;5.40;5.10;;;13.30;63.70;;;;;;20387;6852;290079;-73
2023/10/25 00:36:13;;;;;;;4.90;4.60;;;13.20;63.60;;;;;;20618;6852;118152;-73
2023/10/25 00:38:38;;;;;;;4.43;4.10;;;13.20;63.60;;;;;;20617;6852;121179;-73
2023/10/25 00:41:04;;;;;;;4.33;3.80;;;12.90;64.30;;;;;;20616;6852;121712;-73
2023/10/25 00:43:30;;;;;;;3.90;3.70;;;12.70;65.20;;;;;;20620;6852;117987;-73
2023/10/25 00:45:58;;;;;;;4.70;4.30;;;12.60;66.00;;;;;;20392;6852;292201;-73
2023/10/25 00:48:24;;;;;;;4.00;3.67;;;12.70;65.40;;;;;;20628;6852;116846;-73
2023/10/25 00:50:50;;;;;;;4.75;4.55;;;12.70;65.30;;;;;;20411;6852;338290;-73
2023/10/25 00:53:16;;;;;;;4.10;3.80;;;12.90;64.90;;;;;;20620;6852;117585;-73
2023/10/25 00:55:41;;;;;;;4.75;4.55;;;12.90;64.90;;;;;;20386;6852;340643;-73
2023/10/25 00:58:07;;;;;;;4.62;4.35;;;13.00;64.30;;;;;;20398;6852;348809;-73
2023/10/25 01:00:33;;;;;;;3.67;3.40;;;13.30;63.00;;;;;;20612;6852;118355;-73
2023/10/25 01:02:59;;;;;;;3.17;3.07;;;13.20;63.10;;;;;;20607;6852;117652;-73
2023/10/25 01:05:24;;;;;;;5.27;3.33;;;12.90;64.00;;;;;;20599;6852;117488;-73
2023/10/25 01:07:49;;;;;;;3.93;3.73;;;12.80;65.00;;;;;;20365;6852;308932;-73
2023/10/25 01:10:15;;;;;;;3.47;2.83;;;12.90;65.00;;;;;;20620;6852;117464;-73
2023/10/25 01:12:40;;;;;;;3.40;3.20;;;12.90;65.00;;;;;;20403;6852;315903;-73
2023/10/25 01:15:06;;;;;;;3.30;3.10;;;13.00;64.80;;;;;;20406;6852;322059;-73
2023/10/25 01:17:32;;;;;;;3.70;3.47;;;13.30;64.30;;;;;;20619;6852;117286;-73
2023/10/25 01:19:57;;;;;;;3.30;3.00;;;13.20;64.20;;;;;;20615;6852;117320;-73
2023/10/25 01:22:23;;;;;;;4.00;3.80;;;13.00;65.00;;;;;;20420;6852;308821;-73
2023/10/25 01:24:49;;;;;;;3.90;3.70;;;13.30;63.80;;;;;;20411;6850;308698;-73
2023/10/25 01:27:15;;;;;;;3.80;3.60;;;13.30;63.80;;;;;;20414;6851;297005;-72
2023/10/25 01:29:40;;;;;;;3.73;3.53;;;13.60;63.10;;;;;;20402;6852;280171;-73
2023/10/25 01:32:06;;;;;;;3.70;3.40;;;13.70;61.70;;;;;;20425;6852;357295;-72
2023/10/25 01:34:33;;;;;;;3.60;3.30;;;14.00;60.60;;;;;;20435;6852;309019;-73
2023/10/25 01:36:58;;;;;;;2.50;2.30;;;13.90;60.50;;;;;;20622;6852;117952;-72
2023/10/25 01:39:24;;;;;;;2.67;2.58;;;13.70;61.00;;;;;;20409;6852;323192;-72
2023/10/25 01:41:49;;;;;;;2.00;1.90;;;13.60;61.00;;;;;;20597;6852;117577;-73
2023/10/25 01:44:16;;;;;;;2.10;2.00;;;13.00;62.20;;;;;;20614;6852;118159;-72
2023/10/25 01:46:41;;;;;;;2.30;2.20;;;13.00;62.20;;;;;;20612;6852;117777;-73
2023/10/25 01:49:07;;;;;;;1.43;1.43;;;12.70;63.10;;;;;;20612;6852;118196;-73
2023/10/25 01:51:32;;;;;;;2.20;2.00;;;12.50;64.00;;;;;;20403;6852;279542;-73
2023/10/25 01:53:58;;;;;;;2.33;2.23;;;12.60;63.50;;;;;;20400;6852;317242;-73
2023/10/25 01:56:24;;;;;;;1.92;1.83;;;12.90;62.20;;;;;;20609;6852;117185;-73
2023/10/25 01:58:50;;;;;;;2.13;2.03;;;12.90;62.40;;;;;;20391;6852;310452;-73
2023/10/25 02:01:15;;;;;;;2.08;1.98;;;12.90;62.00;;;;;;20395;6852;282374;-73
2023/10/25 02:03:41;;;;;;;2.10;2.00;;;13.10;60.80;;;;;;20410;6852;310001;-74
2023/10/25 02:06:10;;;;;;;1.73;1.63;;;13.30;60.10;;;;;;20632;6852;118666;-73
2023/10/25 02:08:35;;;;;;;5.00;1.50;;;13.10;60.50;;;;;;20606;6852;121141;-73
2023/10/25 02:11:01;;;;;;;1.90;1.80;;;12.70;61.30;;;;;;20395;6852;308233;-73
2023/10/25 02:13:27;;;;;;;2.00;1.77;;;12.60;61.40;;;;;;20612;6852;117995;-73
2023/10/25 02:15:53;;;;;;;2.00;1.73;;;12.60;61.40;;;;;;20384;6852;343052;-73
2023/10/25 02:18:19;;;;;;;1.85;1.60;;;12.50;61.60;;;;;;20617;6852;121427;-73
2023/10/25 02:20:45;;;;;;;1.70;1.60;;;12.50;61.60;;;;;;20613;6852;117223;-73
2023/10/25 02:23:10;;;;;;;2.00;1.90;;;12.30;62.40;;;;;;20399;6852;317279;-73
2023/10/25 02:25:36;;;;;;;1.50;1.50;;;12.40;62.20;;;;;;20590;6852;128290;-73
2023/10/25 02:28:02;;;;;;;2.17;1.53;;;12.40;62.40;;;;;;20626;6852;117567;-73
2023/10/25 02:30:27;;;;;;;2.00;1.53;;;12.20;63.00;;;;;;20620;6852;117350;-72
2023/10/25 02:32:53;;;;;;;1.80;1.70;;;12.00;63.70;;;;;;20404;6852;308324;-72
2023/10/25 02:35:18;;;;;;;1.80;1.70;;;12.20;63.60;;;;;;20410;6852;293662;-73
2023/10/25 02:37:44;;;;;;;1.97;1.90;;;12.50;62.00;;;;;;20367;6850;338755;-73
2023/10/25 02:40:11;;;;;;;1.47;1.47;;;12.70;61.70;;;;;;20571;6851;117355;-72
2023/10/25 02:42:36;;;;;;;1.70;1.70;;;12.70;61.70;;;;;;20405;6852;317620;-73
2023/10/25 02:45:02;;;;;;;3.40;1.97;;;12.70;61.50;;;;;;20393;6852;324811;-72
2023/10/25 02:47:27;;;;;;;1.92;1.70;;;12.90;60.70;;;;;;20616;6852;117414;-72
2023/10/25 02:49:53;;;;;;;2.00;1.90;;;12.80;60.90;;;;;;20385;6852;279323;-73
2023/10/25 02:52:19;;;;;;;5.30;2.13;;;12.80;60.90;;;;;;20610;6852;121377;-72
2023/10/25 02:54:44;;;;;;;1.50;1.50;;;12.60;61.10;;;;;;20517;6852;120237;-73
2023/10/25 02:57:10;;;;;;;2.20;2.10;;;12.30;61.80;;;;;;20308;6852;344701;-72
2023/10/25 02:59:35;;;;;;;1.83;1.73;;;12.30;61.30;;;;;;20486;6852;117574;-73
2023/10/25 03:02:02;;;;;;;2.93;2.73;;;12.20;61.40;;;;;;20503;6852;121791;-72
2023/10/25 03:04:28;;;;;;;2.40;2.30;;;12.00;62.80;;;;;;20505;6852;117795;-73
2023/10/25 03:06:53;;;;;;;2.83;2.72;;;11.80;62.90;;;;;;20292;6852;284819;-72
2023/10/25 03:09:19;;;;;;;2.70;2.60;;;11.90;62.30;;;;;;20320;6852;315922;-72
2023/10/25 03:11:44;;;;;;;2.60;2.40;;;12.20;61.30;;;;;;20368;6852;283093;-73
2023/10/25 03:14:10;;;;;;;2.73;2.43;;;12.40;60.40;;;;;;20387;6852;279587;-73
2023/10/25 03:16:36;;;;;;;3.63;2.50;;;12.60;59.90;;;;;;20402;6852;310280;-72
2023/10/25 03:19:01;;;;;;;2.37;2.27;;;12.70;59.00;;;;;;20395;6852;279974;-73
2023/10/25 03:21:27;;;;;;;2.67;2.50;;;12.70;58.60;;;;;;20399;6852;280903;-72
2023/10/25 03:23:52;;;;;;;2.00;1.90;;;12.80;58.00;;;;;;20594;6852;117393;-73
2023/10/25 03:26:19;;;;;;;2.00;1.90;;;12.10;59.70;;;;;;20620;6852;118259;-72
2023/10/25 03:28:44;;;;;;;2.00;1.90;;;12.10;59.70;;;;;;20616;6852;117889;-73
2023/10/25 03:31:10;;;;;;;2.42;2.33;;;11.80;60.70;;;;;;20407;6852;309009;-73
2023/10/25 03:33:36;;;;;;;2.17;2.08;;;11.80;60.60;;;;;;20614;6852;121774;-73
2023/10/25 03:36:01;;;;;;;2.07;1.67;;;11.70;60.60;;;;;;20687;6852;117438;-72
2023/10/25 03:38:27;;;;;;;2.03;1.92;;;11.50;61.60;;;;;;20607;6852;117307;-72
2023/10/25 03:41:05;;;;;;;1.63;1.57;;;11.30;62.60;;;;;;20613;6852;117224;-73
2023/10/25 03:43:33;;;;;;;2.10;2.00;;;11.20;63.40;;;;;;20595;6852;117801;-72
2023/10/25 03:46:03;;;;;;;1.70;1.60;;;11.10;64.00;;;;;;20614;6852;117780;-73
2023/10/25 03:48:28;;;;;;;2.50;2.40;;;11.00;64.40;;;;;;20386;6851;323596;-73
2023/10/25 03:50:54;;;;;;;2.27;1.90;;;11.20;64.40;;;;;;20635;6851;117612;-72
2023/10/25 03:53:20;;;;;;;2.40;2.30;;;11.30;64.00;;;;;;20416;6852;280047;-72
2023/10/25 03:55:52;;;;;;;2.17;2.07;;;11.50;63.40;;;;;;20600;6852;118937;-72
2023/10/25 03:58:17;;;;;;;2.10;2.00;;;11.40;63.20;;;;;;20611;6852;117537;-73
2023/10/25 04:00:43;;;;;;;2.72;2.62;;;11.20;63.70;;;;;;20401;6852;308991;-73
2023/10/25 04:03:09;;;;;;;2.90;2.50;;;11.40;63.40;;;;;;20615;6852;117759;-72
2023/10/25 04:05:35;;;;;;;2.42;2.33;;;11.20;64.50;;;;;;20598;6852;117652;-73
2023/10/25 04:08:01;;;;;;;2.70;2.60;;;11.20;63.90;;;;;;20393;6852;309381;-72
2023/10/25 04:10:26;;;;;;;2.90;2.77;;;11.40;63.70;;;;;;20411;6852;280803;-72
2023/10/25 04:12:52;;;;;;;2.70;2.60;;;11.70;63.00;;;;;;20398;6852;309077;-72
2023/10/25 04:15:17;;;;;;;2.80;2.60;;;11.90;62.00;;;;;;20409;6852;309033;-72
2023/10/25 04:17:44;;;;;;;2.40;2.20;;;11.90;61.40;;;;;;20465;6852;119756;-72
2023/10/25 04:20:09;;;;;;;2.20;2.10;;;11.90;61.20;;;;;;20627;6852;122203;-72
2023/10/25 04:22:35;;;;;;;3.07;2.83;;;11.60;62.00;;;;;;20415;6852;319008;-72
2023/10/25 04:25:00;;;;;;;2.50;2.40;;;11.60;61.50;;;;;;20613;6852;118070;-72
2023/10/25 04:27:27;;;;;;;2.40;2.30;;;11.30;62.50;;;;;;20622;6852;118137;-73
2023/10/25 04:29:52;;;;;;;3.20;3.10;;;11.30;62.50;;;;;;20388;6852;442072;-72
2023/10/25 04:32:19;;;;;;;2.93;2.83;;;11.40;62.40;;;;;;20616;6852;117736;-71
2023/10/25 04:34:45;;;;;;;3.17;3.07;;;11.50;62.10;;;;;;20409;6852;309485;-71
2023/10/25 04:37:11;;;;;;;3.50;3.30;;;11.50;62.00;;;;;;20400;6852;308780;-71
2023/10/25 04:39:36;;;;;;;3.40;3.30;;;11.70;61.20;;;;;;20387;6852;297491;-72
2023/10/25 04:42:02;;;;;;;3.10;2.90;;;11.90;60.40;;;;;;20620;6852;122144;-71
2023/10/25 04:44:28;;;;;;;2.80;2.70;;;11.80;60.60;;;;;;20609;6852;117889;-71
2023/10/25 04:46:53;;;;;;;2.63;2.53;;;11.50;61.50;;;;;;20620;6852;120281;-74
2023/10/25 04:49:19;;;;;;;2.62;2.53;;;11.20;62.40;;;;;;20618;6852;117583;-74
2023/10/25 04:51:45;;;;;;;3.00;2.63;;;11.00;63.40;;;;;;20602;6852;117697;-75
2023/10/25 04:54:10;;;;;;;3.70;3.50;;;10.80;63.60;;;;;;20392;6852;310439;-75
2023/10/25 04:56:36;;;;;;;3.23;3.03;;;10.90;62.60;;;;;;20619;6852;117641;-74
2023/10/25 04:59:02;;;;;;;3.33;3.13;;;11.00;62.70;;;;;;20630;6850;117728;-74
2023/10/25 05:01:27;;;;;;;3.77;3.57;;;10.80;63.30;;;;;;20429;6851;279682;-74
2023/10/25 05:03:53;;;;;;;4.10;3.80;;;11.00;63.40;;;;;;20381;6852;289781;-74
2023/10/25 05:06:20;;;;;;;4.10;3.90;;;11.60;61.50;;;;;;20393;6852;308674;-75
2023/10/25 05:08:46;;;;;;;4.00;3.80;;;11.60;61.40;;;;;;20400;6852;308569;-75
2023/10/25 05:11:12;;;;;;;3.40;3.20;;;11.80;60.60;;;;;;20605;6852;117490;-74
2023/10/25 05:13:37;;;;;;;4.10;3.90;;;11.70;60.80;;;;;;20366;6852;309102;-76
2023/10/25 05:16:04;;;;;;;4.70;4.40;;;11.70;60.60;;;;;;20396;6852;287037;-74
2023/10/25 05:18:29;;;;;;;6.80;6.40;;;11.90;60.00;;;;;;20392;6852;309101;-75
2023/10/25 05:20:59;;;;;;;4.70;4.40;;;12.00;59.50;;;;;;20585;6852;118036;-76
2023/10/25 05:23:32;;;;;;;4.10;3.70;;;11.80;59.90;;;;;;20611;6852;117289;-79
2023/10/25 05:25:57;;;;;;;3.80;3.57;;;11.40;60.80;;;;;;20593;6852;117721;-79
2023/10/25 05:28:23;;;;;;;4.60;4.33;;;11.10;61.70;;;;;;20368;6852;305679;-82
2023/10/25 05:30:49;;;;;;;4.20;4.00;;;11.20;62.10;;;;;;20431;6852;345627;-79
2023/10/25 05:33:14;;;;;;;4.17;3.97;;;11.50;61.40;;;;;;20409;6852;308995;-78
2023/10/25 05:35:40;;;;;;;3.33;3.13;;;11.70;60.40;;;;;;20579;6852;118914;-79
2023/10/25 05:38:06;;;;;;;4.10;3.90;;;11.60;60.60;;;;;;20406;6852;279287;-79
2023/10/25 05:40:31;;;;;;;4.50;4.20;;;11.60;60.30;;;;;;20400;6852;308604;-79
2023/10/25 05:42:57;;;;;;;4.50;4.27;;;11.80;59.90;;;;;;20404;6852;279104;-79
2023/10/25 05:45:23;;;;;;;4.60;4.30;;;11.90;59.40;;;;;;20385;6852;309488;-80
2023/10/25 05:47:48;;;;;;;4.07;3.87;;;12.00;59.00;;;;;;20589;6852;121259;-79
2023/10/25 05:50:16;;;;;;;3.80;3.60;;;11.80;59.50;;;;;;20622;6852;118205;-80
2023/10/25 05:52:45;;;;;;;4.90;4.60;;;11.40;60.50;;;;;;20327;6852;281810;-77
2023/10/25 05:55:14;;;;;;;4.78;4.43;;;11.50;60.80;;;;;;20311;6852;308776;-88
2023/10/25 05:57:39;;;;;;;4.47;4.27;;;11.70;59.80;;;;;;20330;6852;325790;-79
2023/10/25 06:00:06;;;;;;;3.80;3.60;;;11.90;59.70;;;;;;20550;6852;118718;-84
2023/10/25 06:02:31;;;;;;;4.28;4.07;;;11.70;60.00;;;;;;20354;6852;309230;-73
2023/10/25 06:04:57;;;;;;;4.60;4.30;;;11.70;60.30;;;;;;20361;6852;319915;-74
2023/10/25 06:07:22;;;;;;;4.07;3.87;;;11.90;60.30;;;;;;20568;6852;117438;-74
2023/10/25 06:09:48;;;;;;;4.57;4.37;;;11.80;60.70;;;;;;20350;6852;284618;-74
2023/10/25 06:12:14;;;;;;;3.97;3.77;;;11.90;60.90;;;;;;20583;6850;117902;-76
2023/10/25 06:14:39;;;;;;;4.30;4.10;;;11.80;61.30;;;;;;20622;6851;121291;-75
2023/10/25 06:17:05;;;;;;;4.07;3.87;;;11.60;62.20;;;;;;20611;6851;113194;-75
2023/10/25 06:19:30;;;;;;;4.87;4.67;;;11.40;62.90;;;;;;20386;6852;279463;-75
2023/10/25 06:21:56;;;;;;;5.70;5.37;;;11.60;63.60;;;;;;20391;6852;308904;-76
2023/10/25 06:24:22;;;;;;;5.47;5.17;;;12.00;62.00;;;;;;20405;6852;310160;-76
2023/10/25 06:26:47;;;;;;;5.40;5.00;;;12.30;60.80;;;;;;20409;6852;279160;-76
2023/10/25 06:29:13;;;;;;;4.30;4.00;;;12.50;60.30;;;;;;20622;6852;122399;-77
2023/10/25 06:31:38;;;;;;;4.30;4.10;;;12.30;60.50;;;;;;20599;6852;130486;-76
2023/10/25 06:34:04;;;;;;;4.30;4.00;;;12.10;61.50;;;;;;20614;6852;117835;-76
2023/10/25 06:36:33;;;;;;;4.80;4.60;;;11.80;62.30;;;;;;20396;6852;308102;-76
2023/10/25 06:39:04;;;;;;;4.20;3.90;;;11.90;62.60;;;;;;20583;6852;117807;-76
2023/10/25 06:41:25;;;;;;;2.77;2.67;;;11.90;62.60;;;;;;20597;6852;117999;-76
2023/10/25 06:43:51;;;;;;;2.60;2.50;;;11.80;63.30;;;;;;20549;6852;117881;-77
2023/10/25 06:46:18;;;;;;;3.50;3.30;;;11.80;62.70;;;;;;20412;6852;309111;-76
2023/10/25 06:48:44;;;;;;;3.92;3.72;;;12.10;61.20;;;;;;20402;6852;308701;-76
2023/10/25 06:51:11;;;;;;;4.47;4.18;;;12.40;60.90;;;;;;20407;6852;309104;-76
2023/10/25 06:53:37;;;;;;;3.80;3.60;;;12.40;60.90;;;;;;20597;6852;117796;-77
2023/10/25 06:56:02;;;;;;;3.90;3.70;;;12.40;61.40;;;;;;20613;6852;118726;-75
2023/10/25 06:58:28;;;;;;;4.47;4.28;;;12.50;63.10;;;;;;20393;6852;280201;-76
2023/10/25 07:00:57;;;;;;;4.33;4.13;;;12.50;63.10;;;;;;20606;6852;117576;-75
2023/10/25 07:03:34;;;;;;;4.00;3.70;;;12.70;63.40;;;;;;20606;6852;117742;-76
2023/10/25 07:05:58;;;;;;;4.23;4.03;;;12.70;64.10;;;;;;20377;6852;278627;-75
2023/10/25 07:08:24;;;;;;;4.37;4.17;;;13.40;61.50;;;;;;20398;6852;279931;-75
2023/10/25 07:10:50;;;;;;;4.68;4.37;;;13.40;61.50;;;;;;20408;6852;282693;-75
2023/10/25 07:13:15;;;;;;;3.85;3.65;;;13.80;60.50;;;;;;20607;6852;122166;-75
2023/10/25 07:15:41;;;;;;;4.00;3.80;;;13.90;60.80;;;;;;20370;6852;314005;-76
2023/10/25 07:18:08;;;;;;;4.03;3.63;;;14.10;60.10;;;;;;20605;6852;118240;-76
2023/10/25 07:20:33;;;;;;;4.20;3.90;;;14.10;60.30;;;;;;20412;6852;284714;-76
2023/10/25 07:23:00;;;;;;;4.30;4.10;;;14.30;60.10;;;;;;20399;6850;288864;-76
2023/10/25 07:25:25;;;;;;;4.35;3.95;;;14.60;59.30;;;;;;20382;6851;346552;-76
2023/10/25 07:27:50;;;;;;;3.47;3.37;;;14.90;58.50;;;;;;20589;6852;118072;-77
2023/10/25 07:30:16;;;;;;;8.87;8.27;;;14.80;58.70;;;;;;20394;6852;278597;-78
2023/10/25 07:32:41;;;;;;;5.03;4.70;;;14.90;58.50;;;;;;20395;6852;287963;-78
2023/10/25 07:35:07;;;;;;;4.17;3.97;;;15.10;58.30;;;;;;20404;6852;283798;-80
2023/10/25 07:37:34;;;;;;;4.87;4.20;;;15.40;58.50;;;;;;20603;6852;117447;-77
2023/10/25 07:39:59;;;;;;;4.80;4.50;;;15.40;58.50;;;;;;20250;6852;308664;-76
2023/10/25 07:42:25;;;;;;;3.90;3.63;;;15.60;58.00;;;;;;20399;6852;279064;-76
2023/10/25 07:44:51;;;;;;;4.40;3.37;;;15.90;58.60;;;;;;20612;6852;118419;-76
2023/10/25 07:47:20;;;;;;;3.58;3.37;;;15.90;58.00;;;;;;20403;6852;347530;-76
2023/10/25 07:49:46;;;;;;;3.53;3.40;;;16.10;57.70;;;;;;20594;6852;118107;-76
2023/10/25 07:52:11;;;;;;;3.60;3.40;;;16.10;58.30;;;;;;20409;6852;309255;-76
2023/10/25 07:54:38;;;;;;;3.73;3.43;;;16.30;56.30;;;;;;20400;6852;278326;-76
2023/10/25 07:57:03;;;;;;;3.50;3.30;;;16.30;56.30;;;;;;20394;6852;308779;-76
2023/10/25 07:59:29;;;;;;;4.70;4.50;;;16.50;55.70;;;;;;20394;6852;319565;-76
2023/10/25 08:01:55;;;;;;;3.20;3.10;;;16.50;55.60;;;;;;20559;6852;118080;-78
2023/10/25 08:04:20;;;;;;;3.80;3.50;;;16.30;56.50;;;;;;20582;6852;118254;-77
2023/10/25 08:06:46;;;;;;;4.20;2.87;;;15.80;58.40;;;;;;20615;6852;117736;-79
2023/10/25 08:09:12;;;;;;;3.72;3.53;;;15.80;58.40;;;;;;20398;6852;308342;-76
2023/10/25 08:11:38;;;;;;;3.30;3.10;;;15.90;57.30;;;;;;20595;6852;117745;-77
2023/10/25 08:14:03;;;;;;;3.67;3.40;;;15.80;57.70;;;;;;20400;6852;283683;-76
2023/10/25 08:16:29;;;;;;;3.60;3.30;;;15.90;57.50;;;;;;20398;6852;300967;-76
2023/10/25 08:18:54;;;;;;;3.30;3.10;;;16.10;57.10;;;;;;20608;6852;121574;-76
2023/10/25 08:21:20;;;;;;;3.12;3.03;;;16.10;57.70;;;;;;20404;6852;279670;-76
2023/10/25 08:23:46;;;;;;;3.42;3.22;;;16.10;57.00;;;;;;20381;6852;338778;-76
2023/10/25 08:26:11;;;;;;;3.30;3.10;;;16.30;57.30;;;;;;20397;6852;308729;-76
2023/10/25 08:28:37;;;;;;;3.00;2.80;;;16.50;56.30;;;;;;20609;6852;118490;-76
2023/10/25 08:31:12;;;;;;;2.80;2.60;;;16.30;56.60;;;;;;20616;6852;122004;-76
2023/10/25 08:33:39;;;;;;;3.33;3.13;;;16.10;57.20;;;;;;20372;6850;308687;-76
2023/10/25 08:36:05;;;;;;;3.33;3.12;;;16.20;56.60;;;;;;20406;6851;308597;-76
2023/10/25 08:38:32;;;;;;;2.90;2.80;;;16.10;57.00;;;;;;20608;6852;119790;-76
2023/10/25 08:41:03;;;;;;;2.53;2.40;;;16.10;56.90;;;;;;20614;6852;123625;-76
2023/10/25 08:43:30;;;;;;;2.40;2.20;;;15.90;57.80;;;;;;20594;6852;117551;-75
2023/10/25 08:45:56;;;;;;;2.47;2.37;;;15.60;58.40;;;;;;20376;6852;309200;-76
2023/10/25 08:48:21;;;;;;;2.90;2.70;;;15.60;58.00;;;;;;20616;6852;116647;-76
2023/10/25 08:50:47;;;;;;;2.80;2.60;;;15.60;58.50;;;;;;20398;6852;317557;-76
2023/10/25 08:53:13;;;;;;;2.90;2.25;;;15.60;58.40;;;;;;20617;6852;118274;-78
2023/10/25 08:55:39;;;;;;;2.37;2.20;;;15.50;58.30;;;;;;20589;6852;118740;-76
2023/10/25 08:58:04;;;;;;;3.95;2.70;;;15.40;59.10;;;;;;20411;6852;308994;-77
2023/10/25 09:00:32;;;;;;;3.17;2.87;;;15.40;58.60;;;;;;20607;6852;116604;-76
2023/10/25 09:02:56;;;;;;;3.70;3.40;;;15.40;58.90;;;;;;20399;6852;309483;-76
2023/10/25 09:05:21;;;;;;;3.80;3.60;;;15.50;59.10;;;;;;20606;6852;119820;-77
2023/10/25 09:07:47;;;;;;;2.60;2.50;;;15.50;59.50;;;;;;20384;6852;279148;-77
2023/10/25 09:10:13;;;;;;;2.73;2.53;;;15.60;59.00;;;;;;20393;6852;309491;-77
2023/10/25 09:12:38;;;;;;;2.07;1.97;;;15.80;58.50;;;;;;20593;6852;119449;-77
2023/10/25 09:15:04;;;;;;;2.20;2.10;;;15.70;58.70;;;;;;20609;6852;118384;-77
2023/10/25 09:17:32;;;;;;;2.57;2.47;;;15.50;59.40;;;;;;20393;6852;278613;-77
2023/10/25 09:19:58;;;;;;;2.93;1.93;;;15.50;58.70;;;;;;20596;6852;122047;-77
2023/10/25 09:22:27;;;;;;;2.20;2.03;;;15.50;59.00;;;;;;20398;6852;338265;-77
2023/10/25 09:24:56;;;;;;;2.30;2.20;;;15.50;59.00;;;;;;20395;6852;309205;-77
2023/10/25 09:27:21;;;;;;;2.30;2.10;;;15.80;58.90;;;;;;20433;6852;281775;-77
2023/10/25 09:29:48;;;;;;;1.62;1.52;;;16.00;58.80;;;;;;20597;6852;121421;-77
2023/10/25 09:32:14;;;;;;;2.63;1.50;;;15.90;59.20;;;;;;20647;6852;119148;-76
2023/10/25 09:34:40;;;;;;;1.73;1.62;;;15.70;60.10;;;;;;20396;6852;279448;-78
2023/10/25 09:37:06;;;;;;;1.83;1.67;;;15.80;59.70;;;;;;20645;6852;117659;-78
2023/10/25 09:39:37;;;;;;;1.35;1.35;;;15.80;60.00;;;;;;20598;6852;117641;-79
2023/10/25 09:42:03;;;;;;;4.60;4.30;;;15.60;60.50;;;;;;20548;6852;122051;-78
2023/10/25 09:44:31;;;;;;;2.60;2.40;;;15.50;61.20;;;;;;20338;6852;309107;-78
2023/10/25 09:46:54;;;;;;;3.83;1.70;;;15.70;60.40;;;;;;20316;6850;338252;-79
2023/10/25 09:49:20;;;;;;;2.80;2.60;;;16.10;60.20;;;;;;20325;6851;308300;-79
2023/10/25 09:51:51;;;;;;;3.65;3.35;;;16.50;59.40;;;;;;20294;6852;280052;-78
2023/10/25 09:54:17;;;;;;;3.87;3.03;;;16.80;58.00;;;;;;20514;6852;120812;-79
2023/10/25 09:56:42;;;;;;;1.58;1.48;;;16.80;58.50;;;;;;20537;6852;117332;-79
2023/10/25 09:59:10;;;;;;;2.37;2.27;;;16.60;59.10;;;;;;20387;6852;309148;-78
2023/10/25 10:01:34;;;;;;;1.35;1.35;;;16.70;57.90;;;;;;20596;6852;122309;-79
2023/10/25 10:04:06;;;;;;;2.00;1.67;;;16.70;58.30;;;;;;20403;6852;309122;-77
2023/10/25 10:06:37;;;;;;;2.45;1.80;;;16.70;57.70;;;;;;20380;6852;337924;-82
2023/10/25 10:09:33;;;;;;;1.80;1.70;;;17.00;57.00;;;;;;20606;6852;117579;-74
2023/10/25 10:12:07;;;;;;;1.90;1.63;;;16.80;59.40;;;;;;20594;6852;118578;-74
2023/10/25 10:14:39;;;;;;;1.98;1.87;;;16.80;58.60;;;;;;20424;6852;279116;-78
2023/10/25 10:17:07;;;;;;;1.30;1.20;;;16.90;58.00;;;;;;20610;6852;119215;-81
2023/10/25 10:19:33;;;;;;;1.57;1.50;;;16.90;58.30;;;;;;20387;6852;293595;-77
2023/10/25 10:22:03;;;;;;;1.90;1.20;;;17.10;57.30;;;;;;20594;6852;117799;-77
2023/10/25 10:24:48;;;;;;;1.30;1.20;;;17.20;58.00;;;;;;20600;6852;117295;-78
2023/10/25 10:27:13;;;;;;;4.33;1.10;;;17.10;58.70;;;;;;20598;6852;118038;-76
2023/10/25 10:29:39;;;;;;;1.50;1.40;;;17.10;59.30;;;;;;20378;6852;283662;-74
2023/10/25 10:32:04;;;;;;;1.20;1.20;;;17.30;57.50;;;;;;20401;6852;308631;-77
2023/10/25 10:34:49;;;;;;;1.15;1.08;;;17.60;56.60;;;;;;20407;6852;308750;-76
2023/10/25 10:37:20;;;;;;;1.00;1.00;;;18.00;55.80;;;;;;20401;6852;308539;-75
2023/10/25 10:39:57;;;;;;;1.03;1.03;;;18.30;54.70;;;;;;20363;6852;306693;-77
2023/10/25 10:42:38;;;;;;;1.30;1.20;;;18.50;53.80;;;;;;20402;6852;279187;-76
2023/10/25 10:45:02;;;;;;;1.20;1.10;;;18.60;53.30;;;;;;20386;6852;309396;-75
2023/10/25 10:47:33;;;;;;;1.40;1.30;;;18.80;53.50;;;;;;20398;6852;316447;-75
2023/10/25 10:50:09;;;;;;;1.00;1.00;;;18.90;53.00;;;;;;20603;6852;118854;-75
2023/10/25 10:52:34;;;;;;;1.60;1.00;;;18.80;54.10;;;;;;20582;6852;122012;-75
2023/10/25 10:55:00;;;;;;;1.17;0.77;;;18.20;55.70;;;;;;20616;6852;117818;-76
2023/10/25 10:57:26;;;;;;;3.03;0.83;;;18.20;55.70;;;;;;20607;6850;117372;-75
2023/10/25 10:59:52;;;;;;;1.40;1.30;;;18.00;56.30;;;;;;20374;6851;338944;-74
2023/10/25 11:02:17;;;;;;;1.43;1.43;;;18.10;54.40;;;;;;20396;6852;279092;-75
2023/10/25 11:04:43;;;;;;;0.98;0.98;;;18.30;53.60;;;;;;20618;6852;117698;-76
2023/10/25 11:07:09;;;;;;;1.20;1.10;;;18.30;54.50;;;;;;20608;6852;117881;-75
2023/10/25 11:09:34;;;;;;;0.90;0.73;;;18.10;55.10;;;;;;20389;6852;279541;-75
2023/10/25 11:12:03;;;;;;;0.82;0.82;;;18.20;54.40;;;;;;20397;6852;346062;-74
2023/10/25 11:14:29;;;;;;;0.67;0.67;;;18.50;53.60;;;;;;20608;6852;117541;-76
2023/10/25 11:16:57;;;;;;;0.90;0.90;;;18.50;53.50;;;;;;20366;6852;339656;-75
2023/10/25 11:19:21;;;;;;;0.90;0.90;;;18.50;52.80;;;;;;20395;6852;323626;-75
2023/10/25 11:21:47;;;;;;;1.27;0.90;;;18.70;52.80;;;;;;20605;6852;146402;-74
2023/10/25 11:24:12;;;;;;;1.33;0.90;;;18.70;53.80;;;;;;20605;6852;121762;-73
2023/10/25 11:26:40;;;;;;;0.60;0.60;;;18.50;54.50;;;;;;20611;6852;120364;-75
2023/10/25 11:29:05;;;;;;;0.67;0.67;;;18.40;55.80;;;;;;20611;6852;122388;-74
2023/10/25 11:31:31;;;;;;;1.15;0.95;;;18.40;55.70;;;;;;20384;6852;286534;-75
2023/10/25 11:33:56;;;;;;;3.55;0.70;;;18.60;53.30;;;;;;20588;6852;118352;-75
2023/10/25 11:36:21;;;;;;;4.43;0.70;;;18.70;54.30;;;;;;20606;6852;116807;-75
2023/10/25 11:38:47;;;;;;;1.40;0.60;;;18.70;54.80;;;;;;20603;6852;117573;-75
2023/10/25 11:41:14;;;;;;;1.10;1.00;;;18.60;55.10;;;;;;20613;6852;117938;-77
2023/10/25 11:43:39;;;;;;;0.60;0.60;;;18.40;56.00;;;;;;20578;6852;120091;-76
2023/10/25 11:46:05;;;;;;;1.50;0.77;;;18.40;55.90;;;;;;20398;6852;338467;-76
2023/10/25 11:48:30;;;;;;;1.80;0.87;;;18.50;53.30;;;;;;20604;6852;122106;-76
2023/10/25 11:50:56;;;;;;;2.10;1.00;;;18.60;53.90;;;;;;20599;6852;117586;-76
2023/10/25 11:53:22;;;;;;;0.98;0.68;;;18.50;54.60;;;;;;20434;6852;279666;-76
2023/10/25 11:55:47;;;;;;;1.53;1.47;;;18.70;53.60;;;;;;20599;6852;117614;-75
2023/10/25 11:58:15;;;;;;;3.00;0.80;;;18.80;54.00;;;;;;20596;6852;117785;-74
2023/10/25 12:00:39;;;;;;;0.88;0.80;;;18.70;54.40;;;;;;20295;6852;308831;-74
2023/10/25 12:03:04;;;;;;;2.13;0.90;;;18.70;52.10;;;;;;20598;6852;117504;-75
2023/10/25 12:05:30;;;;;;;1.63;0.60;;;18.60;53.80;;;;;;20615;6852;117376;-78
2023/10/25 12:07:56;;;;;;;0.60;0.60;;;18.60;53.80;;;;;;20376;6852;279079;-76
2023/10/25 12:10:23;;;;;;;0.77;0.70;;;18.70;51.80;;;;;;20388;6850;279832;-74
2023/10/25 12:12:47;;;;;;;2.22;0.70;;;18.90;50.80;;;;;;20399;6851;308987;-74
2023/10/25 12:15:14;;;;;;;0.40;0.40;;;19.20;49.70;;;;;;20604;6852;117213;-73
2023/10/25 12:17:40;;;;;;;0.93;0.70;;;18.90;52.40;;;;;;20595;6852;121311;-73
2023/10/25 12:20:06;;;;;;;0.53;0.53;;;18.90;51.70;;;;;;20665;6852;117046;-73
2023/10/25 12:22:32;;;;;;;0.60;0.60;;;18.70;52.60;;;;;;20614;6852;117545;-73
2023/10/25 12:24:57;;;;;;;0.73;0.60;;;18.60;53.40;;;;;;20398;6852;307688;-73
2023/10/25 12:27:23;;;;;;;0.70;0.70;;;18.80;51.90;;;;;;20608;6852;117334;-73
2023/10/25 12:29:49;;;;;;;1.20;0.43;;;18.80;52.80;;;;;;20589;6852;117973;-73
2023/10/25 12:32:14;;;;;;;2.30;0.50;;;18.80;53.50;;;;;;20618;6852;118081;-73